Terminal Aerodrome Forecast
Issued by NWS

Home | Current Version | Previous Version | Text Only | Print | Product List | Glossary Off
Versions: 1 2 3 4 5 6 7 8 9 10 11 12 13 14 15 16 17 18 19

000
FTUS43 KIWX 261100
TAFSBN
TAF
KSBN 261120Z 2612/2712 18005KT P6SM BKN045
     FM261400 22010KT P6SM BKN035 OVC070
     FM262300 25008KT P6SM BKN040
      TEMPO 2703/2707 5SM TSRA OVC020CB=

USA.gov is the U.S. government's official web portal to all federal, state and local government web resources and services.